Time;durP1;ratioP1;P1;durP2;ratioP2;P2;SDS_P1;SDS_P2;PMS_P1;PMS_P2;Temp;Humidity;BMP_temperature;BMP_pressure;BME280_temperature;BME280_humidity;BME280_pressure;Samples;Min_cycle;Max_cycle;Signal;HPM_P1;HPM_P2
2021/09/18 00:01:57;;;;;;;9.52;7.88;;;;;;;22.32;44.46;101215.38;5088366;28;20135;-71
2021/09/18 00:04:23;;;;;;;10.13;8.27;;;;;;;22.29;44.76;101212.97;5070179;28;20127;-71
2021/09/18 00:06:50;;;;;;;10.60;8.35;;;;;;;22.26;44.47;101213.28;5049832;28;20133;-70
2021/09/18 00:09:16;;;;;;;9.25;7.22;;;;;;;22.24;45.17;101214.50;5067465;28;20517;-71
2021/09/18 00:11:43;;;;;;;11.60;8.25;;;;;;;22.21;44.27;101209.31;5068501;28;20452;-70
2021/09/18 00:14:09;;;;;;;11.25;8.70;;;;;;;22.19;44.68;101217.78;5047888;28;20086;-70
2021/09/18 00:16:36;;;;;;;10.70;8.50;;;;;;;22.16;45.03;101209.81;5067531;28;20143;-71
2021/09/18 00:19:03;;;;;;;12.15;8.63;;;;;;;22.14;44.76;101209.13;5010371;28;20144;-70
2021/09/18 00:21:30;;;;;;;11.95;9.77;;;;;;;22.12;44.96;101211.19;5065793;28;20136;-71
2021/09/18 00:23:56;;;;;;;11.68;9.15;;;;;;;22.10;45.02;101218.78;5066798;28;20501;-71
2021/09/18 00:26:23;;;;;;;10.85;8.48;;;;;;;22.07;45.12;101208.09;5067442;28;20574;-71
2021/09/18 00:28:49;;;;;;;10.98;8.95;;;;;;;22.04;45.35;101211.16;5065781;28;20045;-71
2021/09/18 00:31:16;;;;;;;11.15;8.93;;;;;;;22.04;45.37;101210.31;5055169;28;20621;-71
2021/09/18 00:33:42;;;;;;;11.77;8.95;;;;;;;22.00;45.20;101212.53;5066915;28;20051;-71
2021/09/18 00:36:09;;;;;;;11.27;8.68;;;;;;;21.99;45.16;101213.56;5067191;28;20146;-71
2021/09/18 00:38:36;;;;;;;11.25;9.40;;;;;;;21.95;45.17;101213.00;5066557;28;20090;-71
2021/09/18 00:41:03;;;;;;;12.23;9.48;;;;;;;21.95;45.16;101209.38;5049869;28;20136;-71
2021/09/18 00:43:29;;;;;;;11.38;8.60;;;;;;;21.93;45.28;101214.19;5066649;28;20131;-71
2021/09/18 00:45:56;;;;;;;10.90;9.10;;;;;;;21.91;45.13;101206.06;5049190;28;20087;-71
2021/09/18 00:48:22;;;;;;;11.85;9.27;;;;;;;21.89;45.19;101210.94;5066452;28;20106;-71
2021/09/18 00:50:49;;;;;;;11.15;9.38;;;;;;;21.87;45.62;101209.34;5067576;28;20049;-71
2021/09/18 00:53:15;;;;;;;10.40;8.48;;;;;;;21.85;45.28;101215.03;5066392;28;20143;-71
2021/09/18 00:55:42;;;;;;;11.68;8.63;;;;;;;21.84;45.05;101220.72;5067168;28;20052;-71
2021/09/18 00:58:10;;;;;;;12.63;9.48;;;;;;;21.82;45.56;101206.22;5066117;28;20497;-71
2021/09/18 01:00:37;;;;;;;11.05;8.25;;;;;;;21.79;45.50;101206.56;5049202;28;20484;-70
2021/09/18 01:03:03;;;;;;;10.85;7.95;;;;;;;21.78;45.01;101202.06;5066389;28;20432;-71
2021/09/18 01:05:30;;;;;;;11.05;8.63;;;;;;;21.76;45.47;101204.09;5067363;28;20418;-70
2021/09/18 01:07:59;;;;;;;11.25;8.60;;;;;;;21.74;45.46;101206.19;5065510;28;20057;-71
2021/09/18 01:10:26;;;;;;;9.93;8.63;;;;;;;21.72;45.67;101202.72;5067002;28;20067;-71
2021/09/18 01:13:02;;;;;;;10.95;8.45;;;;;;;21.75;45.72;101196.84;5048363;28;20136;-71
2021/09/18 01:15:30;;;;;;;9.55;7.80;;;;;;;21.70;45.26;101210.31;5066884;28;20052;-70
2021/09/18 01:17:58;;;;;;;11.85;9.30;;;;;;;21.68;45.56;101204.94;5065605;28;20076;-71
2021/09/18 01:20:27;;;;;;;11.07;8.88;;;;;;;21.68;45.55;101204.94;5066692;28;20052;-70
2021/09/18 01:22:56;;;;;;;11.48;8.57;;;;;;;21.68;45.58;101206.84;5048061;28;20121;-71
2021/09/18 01:25:25;;;;;;;11.18;8.68;;;;;;;21.64;45.10;101206.31;5066184;28;20464;-70
2021/09/18 01:27:52;;;;;;;10.60;8.30;;;;;;;21.61;45.20;101207.50;5065375;28;20064;-71
2021/09/18 01:30:21;;;;;;;10.73;8.10;;;;;;;21.61;45.05;101213.03;5069520;28;20068;-72
2021/09/18 01:32:48;;;;;;;12.10;9.52;;;;;;;21.59;45.63;101206.81;5065942;28;20051;-71
2021/09/18 01:35:15;;;;;;;13.05;9.90;;;;;;;21.57;45.68;101214.41;5066282;28;20055;-72
2021/09/18 01:37:46;;;;;;;12.65;9.52;;;;;;;21.56;45.34;101217.34;5047233;28;20044;-71
2021/09/18 01:40:21;;;;;;;10.80;9.27;;;;;;;21.57;45.24;101222.72;5048797;28;20557;-71
2021/09/18 01:42:48;;;;;;;11.88;9.48;;;;;;;21.51;45.54;101215.06;5066114;28;20509;-72
2021/09/18 01:45:15;;;;;;;13.27;10.30;;;;;;;21.52;45.67;101213.16;5066306;28;20090;-71
2021/09/18 01:47:45;;;;;;;13.68;10.38;;;;;;;21.49;45.83;101207.97;5064724;28;20102;-70
2021/09/18 01:50:21;;;;;;;12.93;10.48;;;;;;;21.50;45.92;101210.56;5048088;28;20059;-72
2021/09/18 01:52:47;;;;;;;14.45;10.63;;;;;;;21.45;45.88;101214.84;5055728;28;20119;-71
2021/09/18 01:55:16;;;;;;;13.70;10.80;;;;;;;21.44;45.77;101211.22;5055162;28;20125;-72
2021/09/18 01:57:49;;;;;;;13.02;10.55;;;;;;;21.46;45.92;101213.81;5065109;28;20041;-72
2021/09/18 02:00:16;;;;;;;11.52;9.73;;;;;;;21.39;45.65;101210.84;5048048;28;20060;-72
2021/09/18 02:02:43;;;;;;;12.43;10.05;;;;;;;21.38;45.34;101203.59;5065020;28;20525;-72
2021/09/18 02:05:12;;;;;;;13.73;10.77;;;;;;;21.38;45.83;101211.88;5066182;28;20478;-72
2021/09/18 02:07:39;;;;;;;12.27;10.07;;;;;;;21.37;45.41;101212.03;5046461;28;20087;-71
2021/09/18 02:10:09;;;;;;;13.13;10.20;;;;;;;21.37;45.63;101212.91;5065898;28;20098;-71
2021/09/18 02:12:36;;;;;;;12.82;10.80;;;;;;;21.33;45.61;101208.72;5065172;28;20080;-71
2021/09/18 02:15:05;;;;;;;14.00;11.15;;;;;;;21.34;45.89;101212.34;5065314;28;20089;-72
2021/09/18 02:17:32;;;;;;;14.02;11.32;;;;;;;21.31;45.53;101205.28;5046764;28;20094;-70
2021/09/18 02:19:59;;;;;;;12.27;10.10;;;;;;;21.31;45.41;101207.19;5065944;28;20771;-71
2021/09/18 02:22:26;;;;;;;13.10;11.15;;;;;;;21.29;45.51;101199.06;5065914;28;20088;-71
2021/09/18 02:24:52;;;;;;;14.60;11.07;;;;;;;21.27;45.26;101210.25;5047411;28;20084;-71
2021/09/18 02:27:19;;;;;;;12.27;10.02;;;;;;;21.25;45.31;101204.03;5065304;28;20555;-71
2021/09/18 02:29:45;;;;;;;13.45;11.13;;;;;;;21.25;45.49;101208.69;5051498;28;20473;-71
2021/09/18 02:32:12;;;;;;;13.07;10.77;;;;;;;21.22;45.85;101204.38;5065696;28;20565;-70
2021/09/18 02:34:39;;;;;;;13.82;10.88;;;;;;;21.22;45.79;101203.50;5064441;28;20071;-71
2021/09/18 02:37:05;;;;;;;15.00;11.20;;;;;;;21.21;45.75;101201.75;5064767;28;20484;-71
2021/09/18 02:39:32;;;;;;;13.77;11.07;;;;;;;21.19;45.49;101204.69;5046902;28;20501;-71
2021/09/18 02:41:58;;;;;;;17.35;11.50;;;;;;;21.17;45.95;101206.72;5065600;28;20493;-71
2021/09/18 02:44:25;;;;;;;14.15;10.65;;;;;;;21.16;45.53;101202.22;5064367;28;20189;-70
2021/09/18 02:46:52;;;;;;;15.00;11.50;;;;;;;21.14;45.58;101207.03;5047559;28;20136;-71
2021/09/18 02:49:18;;;;;;;13.48;11.18;;;;;;;21.13;45.92;101198.91;5064230;28;20044;-71
2021/09/18 02:51:45;;;;;;;13.70;11.25;;;;;;;21.12;45.76;101194.41;5064320;28;20537;-71
2021/09/18 02:54:11;;;;;;;14.68;11.68;;;;;;;21.11;45.75;101195.44;5026714;28;20076;-71
2021/09/18 02:56:38;;;;;;;13.68;10.98;;;;;;;21.07;45.84;101188.53;5057624;28;20144;-71
2021/09/18 02:59:04;;;;;;;14.85;11.23;;;;;;;21.06;46.16;101195.06;5070490;28;20090;-72
2021/09/18 03:01:31;;;;;;;12.98;11.48;;;;;;;21.04;45.96;101194.38;5067601;28;20053;-71
2021/09/18 03:03:58;;;;;;;15.75;12.23;;;;;;;21.03;45.78;101190.72;5064400;28;20040;-72
2021/09/18 03:06:24;;;;;;;13.73;11.48;;;;;;;21.02;45.68;101182.59;5047162;28;20045;-71
2021/09/18 03:08:51;;;;;;;13.95;11.32;;;;;;;21.00;46.30;101182.75;5064362;28;20048;-71
2021/09/18 03:11:18;;;;;;;15.65;12.18;;;;;;;20.99;45.79;101182.94;5065150;28;20534;-71
2021/09/18 03:13:44;;;;;;;15.80;12.43;;;;;;;20.97;46.42;101185.00;5064035;28;20056;-71
2021/09/18 03:16:11;;;;;;;15.98;12.40;;;;;;;20.96;45.97;101177.75;5064797;28;20070;-71
2021/09/18 03:18:37;;;;;;;15.35;11.75;;;;;;;20.93;45.84;101189.09;5064336;28;20049;-71
2021/09/18 03:21:04;;;;;;;14.75;11.88;;;;;;;20.92;45.83;101176.34;5065170;28;20049;-71
2021/09/18 03:23:31;;;;;;;16.77;12.70;;;;;;;20.89;45.82;101175.63;5064137;28;20055;-71
2021/09/18 03:25:58;;;;;;;14.25;11.80;;;;;;;20.87;46.14;101183.19;5064350;28;20518;-71
2021/09/18 03:28:25;;;;;;;13.25;10.88;;;;;;;20.86;46.28;101183.34;5064337;28;20052;-72
2021/09/18 03:30:51;;;;;;;14.68;11.55;;;;;;;20.84;46.10;101175.22;5047225;28;20102;-71
2021/09/18 03:33:18;;;;;;;14.93;11.77;;;;;;;20.83;45.92;101176.28;5063961;28;20052;-71
2021/09/18 03:35:44;;;;;;;13.90;11.07;;;;;;;20.82;46.10;101177.31;5064715;28;20055;-72
2021/09/18 03:38:11;;;;;;;15.10;11.10;;;;;;;20.81;46.18;101170.06;5063873;28;20044;-71
2021/09/18 03:40:38;;;;;;;18.92;12.52;;;;;;;20.80;45.78;101171.06;5065406;28;20049;-71
2021/09/18 03:43:04;;;;;;;14.60;11.20;;;;;;;20.80;46.26;101167.44;5063474;28;20087;-70
2021/09/18 03:45:31;;;;;;;14.05;11.48;;;;;;;20.79;45.86;101171.25;5065043;28;20056;-71
2021/09/18 03:47:58;;;;;;;15.50;11.25;;;;;;;20.77;46.44;101170.53;5063839;28;20048;-71
2021/09/18 03:50:24;;;;;;;13.20;10.35;;;;;;;20.74;45.59;101168.97;5068497;28;20082;-71
2021/09/18 03:52:51;;;;;;;14.23;10.50;;;;;;;20.74;46.10;101165.34;5057112;28;20048;-70
2021/09/18 03:55:17;;;;;;;13.98;11.00;;;;;;;20.73;45.93;101172.75;5048771;28;20558;-71
2021/09/18 03:57:44;;;;;;;13.70;10.60;;;;;;;20.71;45.93;101163.75;5060339;28;20113;-71
2021/09/18 04:00:11;;;;;;;11.88;10.10;;;;;;;20.70;45.83;101169.44;5068233;28;20048;-71
2021/09/18 04:02:38;;;;;;;16.50;12.73;;;;;;;20.68;45.97;101163.19;5067158;28;20149;-71
2021/09/18 04:05:06;;;;;;;14.27;11.00;;;;;;;20.67;45.65;101167.03;5068211;28;20355;-70
2021/09/18 04:07:32;;;;;;;13.88;10.13;;;;;;;20.65;45.74;101172.69;5048930;28;20158;-71
2021/09/18 04:09:59;;;;;;;13.70;11.48;;;;;;;20.64;45.96;101176.47;5050677;28;20052;-70
2021/09/18 04:12:25;;;;;;;16.45;11.65;;;;;;;20.63;46.20;101176.63;5068035;28;20095;-71
2021/09/18 04:14:52;;;;;;;14.15;10.98;;;;;;;20.62;46.17;101175.75;5067640;28;20518;-71
2021/09/18 04:17:18;;;;;;;14.90;11.05;;;;;;;20.60;46.10;101183.31;5067760;28;20445;-71
2021/09/18 04:19:45;;;;;;;16.73;12.23;;;;;;;20.59;45.90;101187.09;5067332;28;20063;-71
2021/09/18 04:22:11;;;;;;;13.73;11.05;;;;;;;20.58;45.88;101193.66;5067661;28;20059;-71
2021/09/18 04:24:38;;;;;;;13.85;11.15;;;;;;;20.57;45.88;101194.69;5066591;28;20110;-71
2021/09/18 04:27:04;;;;;;;15.95;11.30;;;;;;;20.57;46.28;101199.34;5049514;28;20123;-71
2021/09/18 04:29:31;;;;;;;13.85;11.02;;;;;;;20.56;45.91;101189.31;5073953;28;20086;-71
2021/09/18 04:31:58;;;;;;;14.93;10.57;;;;;;;20.54;45.64;101191.38;5031786;28;20466;-70
2021/09/18 04:34:24;;;;;;;14.98;11.25;;;;;;;20.53;46.06;101198.78;5048976;28;20049;-71
2021/09/18 04:36:51;;;;;;;14.00;11.10;;;;;;;20.51;45.71;101195.31;5067011;28;20540;-71
2021/09/18 04:39:18;;;;;;;15.98;11.68;;;;;;;20.50;45.71;101188.94;5048821;28;20466;-71
2021/09/18 04:41:44;;;;;;;15.23;11.70;;;;;;;20.50;46.28;101196.34;5049937;28;20052;-71
2021/09/18 04:44:11;;;;;;;14.63;11.20;;;;;;;20.48;45.85;101199.28;5048860;28;20514;-72
2021/09/18 04:46:37;;;;;;;15.57;11.48;;;;;;;20.47;45.73;101199.41;5067108;28;20083;-71
2021/09/18 04:49:04;;;;;;;15.70;11.13;;;;;;;20.44;46.17;101203.34;5066232;28;20056;-72
2021/09/18 04:51:31;;;;;;;15.02;10.85;;;;;;;20.44;45.88;101213.50;5067373;28;20094;-70
2021/09/18 04:53:58;;;;;;;15.18;11.50;;;;;;;20.42;46.31;101215.59;5066627;28;20528;-71
2021/09/18 04:56:24;;;;;;;17.10;12.48;;;;;;;20.40;46.20;101217.63;5049319;28;20048;-71
2021/09/18 04:58:51;;;;;;;14.35;11.73;;;;;;;20.39;46.27;101218.66;5065995;28;20036;-71
2021/09/18 05:01:17;;;;;;;15.45;11.38;;;;;;;20.35;45.78;101215.31;5048593;28;20049;-71
2021/09/18 05:03:44;;;;;;;15.95;12.93;;;;;;;20.34;46.03;101216.34;5066393;28;20048;-71
2021/09/18 05:06:11;;;;;;;15.25;12.20;;;;;;;20.32;46.14;101220.28;5066568;28;20510;-72
2021/09/18 05:08:38;;;;;;;16.23;12.70;;;;;;;20.30;46.39;101220.41;5048362;28;20076;-71
2021/09/18 05:11:04;;;;;;;17.15;12.73;;;;;;;20.26;46.68;101218.16;5066978;28;20351;-70
2021/09/18 05:13:31;;;;;;;15.13;12.35;;;;;;;20.24;46.62;101218.28;5066172;28;20044;-72
2021/09/18 05:15:58;;;;;;;17.33;12.98;;;;;;;20.22;46.61;101223.09;5066364;28;20052;-70
2021/09/18 05:18:24;;;;;;;16.48;12.93;;;;;;;20.20;46.87;101227.00;5066057;28;20045;-71
2021/09/18 05:20:51;;;;;;;15.85;12.40;;;;;;;20.16;46.57;101232.00;5048903;28;20048;-70
2021/09/18 05:23:17;;;;;;;15.35;11.88;;;;;;;20.17;46.42;101244.75;5066308;28;20516;-71
2021/09/18 05:25:44;;;;;;;14.68;11.25;;;;;;;20.15;46.70;101241.28;5066414;28;20052;-70
2021/09/18 05:28:10;;;;;;;12.90;10.82;;;;;;;20.14;46.59;101242.31;5065409;28;20471;-71
2021/09/18 05:30:37;;;;;;;15.95;11.60;;;;;;;20.13;46.75;101249.69;5076851;28;20493;-71
2021/09/18 05:33:04;;;;;;;16.20;12.45;;;;;;;20.12;46.58;101249.84;5083861;28;20044;-71
2021/09/18 05:35:30;;;;;;;15.82;11.68;;;;;;;20.12;46.62;101245.22;5066738;28;20063;-71
2021/09/18 05:37:57;;;;;;;15.60;12.18;;;;;;;20.13;46.55;101251.59;5047463;28;20049;-73
2021/09/18 05:40:26;;;;;;;14.07;10.90;;;;;;;20.13;46.49;101251.59;5066391;28;20083;-73
2021/09/18 05:42:53;;;;;;;15.65;11.48;;;;;;;20.12;46.86;101253.47;5065494;28;20044;-72
2021/09/18 05:45:20;;;;;;;14.98;11.48;;;;;;;20.12;46.81;101256.22;5066278;28;20052;-73
2021/09/18 05:47:46;;;;;;;15.55;11.77;;;;;;;20.13;46.52;101255.22;5064774;28;20051;-73
2021/09/18 05:50:13;;;;;;;16.27;12.00;;;;;;;20.13;46.59;101257.97;5065902;28;20260;-73
2021/09/18 05:52:40;;;;;;;17.67;12.68;;;;;;;20.13;46.66;101244.19;5056897;28;20049;-73
2021/09/18 05:55:07;;;;;;;13.43;10.15;;;;;;;20.13;46.54;101251.59;5062944;28;20101;-74
2021/09/18 05:57:34;;;;;;;15.15;11.57;;;;;;;20.13;46.92;101257.09;5064641;28;20052;-73
2021/09/18 06:00:01;;;;;;;16.48;11.75;;;;;;;20.13;47.00;101257.09;5065577;28;20080;-73
2021/09/18 06:02:27;;;;;;;15.98;12.85;;;;;;;20.13;46.79;101254.34;5065825;28;20060;-72
2021/09/18 06:04:54;;;;;;;17.30;12.43;;;;;;;20.12;46.88;101259.00;5065480;28;20052;-73
2021/09/18 06:07:21;;;;;;;17.00;12.63;;;;;;;20.11;46.69;101256.38;5047624;28;20049;-73
2021/09/18 06:09:47;;;;;;;18.30;12.65;;;;;;;20.11;46.84;101261.91;5065127;28;20510;-73
2021/09/18 06:12:14;;;;;;;15.77;11.70;;;;;;;20.11;47.27;101256.38;5065780;28;20092;-72
2021/09/18 06:14:41;;;;;;;16.52;11.82;;;;;;;20.12;47.38;101261.75;5064777;28;20114;-73
2021/09/18 06:17:07;;;;;;;13.40;10.85;;;;;;;20.12;46.96;101260.88;5065527;28;20113;-73
2021/09/18 06:19:34;;;;;;;17.15;12.18;;;;;;;20.13;47.10;101266.25;5064907;28;20052;-72
2021/09/18 06:22:00;;;;;;;15.73;12.27;;;;;;;20.14;47.61;101259.72;5047408;28;20048;-71
2021/09/18 06:24:27;;;;;;;14.18;11.40;;;;;;;20.17;47.64;101271.47;5064718;28;20555;-72
2021/09/18 06:26:53;;;;;;;14.98;11.68;;;;;;;20.18;47.14;101270.44;5065085;28;20511;-72
2021/09/18 06:29:20;;;;;;;13.73;11.02;;;;;;;20.20;47.31;101272.00;5064313;28;20067;-73
2021/09/18 06:31:46;;;;;;;14.65;10.75;;;;;;;20.22;47.34;101263.59;5045924;28;20102;-66
2021/09/18 06:34:13;;;;;;;15.02;10.25;;;;;;;20.23;47.46;101271.72;5044977;28;20790;-67
2021/09/18 06:36:40;;;;;;;15.30;11.70;;;;;;;20.25;47.52;101272.44;5028106;28;20522;-67
2021/09/18 06:39:06;;;;;;;14.45;11.25;;;;;;;20.28;47.44;101279.50;5044975;28;20053;-67
2021/09/18 06:41:33;;;;;;;17.33;12.43;;;;;;;20.29;47.85;101273.84;5045681;28;20092;-74
2021/09/18 06:43:59;;;;;;;16.08;12.32;;;;;;;20.30;47.88;101272.81;5044868;28;20132;-74
2021/09/18 06:46:26;;;;;;;15.25;11.52;;;;;;;20.33;47.86;101280.78;5065298;28;20109;-74
2021/09/18 06:48:52;;;;;;;15.85;12.52;;;;;;;20.35;48.21;101273.25;5046494;28;20048;-74
2021/09/18 06:51:20;;;;;;;16.95;13.20;;;;;;;20.40;48.30;101281.06;5065479;28;20533;-72
2021/09/18 06:53:46;;;;;;;15.18;11.60;;;;;;;20.42;48.23;101279.88;5046673;28;20056;-74
2021/09/18 06:56:13;;;;;;;17.45;12.45;;;;;;;20.47;48.33;101282.16;5062160;28;20080;-72
2021/09/18 06:58:39;;;;;;;16.13;12.40;;;;;;;20.51;48.87;101283.56;5064259;28;20397;-73
2021/09/18 07:01:06;;;;;;;14.43;11.55;;;;;;;20.57;48.74;101284.88;5047405;28;20048;-74
2021/09/18 07:03:33;;;;;;;17.75;12.88;;;;;;;20.62;48.33;101282.50;5064571;28;20053;-74
2021/09/18 07:06:01;;;;;;;18.88;13.00;;;;;;;20.67;48.38;101283.75;5046978;28;20102;-76
2021/09/18 07:08:27;;;;;;;16.02;12.07;;;;;;;20.73;48.81;101285.03;5046612;28;20055;-73
2021/09/18 07:10:54;;;;;;;16.67;11.95;;;;;;;20.77;48.63;101284.53;5065122;28;20075;-73
2021/09/18 07:13:20;;;;;;;18.08;12.93;;;;;;;20.80;48.60;101284.22;5046537;28;20064;-75
2021/09/18 07:18:15;;;;;;;14.32;11.13;;;;;;;20.87;48.38;101281.69;4997102;28;20046;-76
2021/09/18 07:20:41;;;;;;;14.75;11.02;;;;;;;20.91;48.29;101285.03;5024196;28;20057;-77
2021/09/18 07:23:08;;;;;;;13.82;11.07;;;;;;;20.94;48.45;101287.44;5023137;28;20053;-76
2021/09/18 07:25:35;;;;;;;15.40;11.30;;;;;;;20.99;48.24;101282.34;5009199;28;20053;-76
2021/09/18 07:28:01;;;;;;;14.68;11.35;;;;;;;21.01;48.86;101280.25;5007637;28;20526;-77
2021/09/18 07:30:28;;;;;;;14.80;10.82;;;;;;;21.05;48.56;101288.06;5008040;28;20056;-77
2021/09/18 07:32:55;;;;;;;15.20;11.95;;;;;;;21.09;48.92;101286.72;5008653;28;20096;-76
2021/09/18 07:35:21;;;;;;;14.00;11.32;;;;;;;21.14;48.97;101289.00;5009801;28;20045;-76
2021/09/18 07:37:48;;;;;;;15.48;11.40;;;;;;;21.18;48.88;101288.56;5008078;28;20046;-76
2021/09/18 07:40:15;;;;;;;15.05;11.73;;;;;;;21.23;49.10;101283.44;5009371;28;20392;-76
2021/09/18 07:42:42;;;;;;;13.05;10.60;;;;;;;21.29;48.80;101297.63;5007249;28;20049;-77
2021/09/18 07:45:10;;;;;;;15.07;11.25;;;;;;;21.34;48.73;101292.47;5008014;28;20058;-76
2021/09/18 07:47:37;;;;;;;14.52;10.68;;;;;;;21.37;48.62;101293.00;5006932;28;20049;-77
2021/09/18 07:50:05;;;;;;;12.93;10.10;;;;;;;;;;5008925;28;20053;-76
2021/09/18 07:52:31;;;;;;;12.52;10.00;;;;;;;21.46;48.47;101296.72;4999430;28;20479;-76
2021/09/18 07:54:58;;;;;;;12.80;10.35;;;;;;;21.50;48.52;101295.34;4989668;28;20424;-76
2021/09/18 07:57:44;;;;;;;12.80;9.88;;;;;;;21.54;48.90;101297.63;4991279;28;20038;-76
2021/09/18 08:00:11;;;;;;;13.98;9.95;;;;;;;21.59;48.27;101297.13;5007497;28;20135;-75
2021/09/18 08:02:38;;;;;;;13.75;10.98;;;;;;;21.65;48.63;101290.97;4988479;28;20581;-76
2021/09/18 08:05:05;;;;;;;13.90;10.70;;;;;;;21.69;48.78;101297.00;4989369;28;20082;-76
2021/09/18 08:07:32;;;;;;;13.13;9.70;;;;;;;21.73;48.35;101301.19;5004987;28;20050;-76
2021/09/18 08:09:59;;;;;;;14.10;9.82;;;;;;;21.77;47.89;101297.94;5008727;28;20133;-76
2021/09/18 08:12:27;;;;;;;13.00;9.45;;;;;;;21.81;48.43;101298.47;5007704;28;20556;-76
2021/09/18 08:14:53;;;;;;;11.98;9.40;;;;;;;21.85;48.44;101299.88;5008580;28;20080;-76
2021/09/18 08:17:20;;;;;;;13.57;9.25;;;;;;;21.88;48.20;101294.88;5007133;28;20053;-76
2021/09/18 08:19:47;;;;;;;12.18;9.48;;;;;;;21.93;48.48;101297.16;5008598;28;20490;-76
2021/09/18 08:22:13;;;;;;;12.68;10.05;;;;;;;21.96;48.30;101294.94;5008661;28;20090;-76
2021/09/18 08:24:40;;;;;;;11.55;9.32;;;;;;;22.01;47.96;101299.97;5023013;28;20077;-76
2021/09/18 08:27:06;;;;;;;11.07;9.73;;;;;;;22.06;47.91;101296.75;5006445;28;20089;-76
2021/09/18 08:29:33;;;;;;;14.05;10.13;;;;;;;22.08;48.02;101292.75;5006716;28;20057;-75
2021/09/18 08:32:00;;;;;;;12.45;9.73;;;;;;;22.14;48.27;101305.06;5007022;28;20112;-76
2021/09/18 08:34:26;;;;;;;11.82;9.88;;;;;;;22.18;47.85;101309.22;5005256;28;20056;-76
2021/09/18 08:36:53;;;;;;;14.80;10.55;;;;;;;22.21;47.76;101307.00;5006925;28;20072;-76
2021/09/18 08:39:19;;;;;;;14.35;10.77;;;;;;;22.25;48.08;101301.97;5007049;28;20045;-76
2021/09/18 08:41:47;;;;;;;14.93;10.60;;;;;;;22.30;48.02;101302.38;5008066;28;20056;-76
2021/09/18 08:44:15;;;;;;;12.27;9.95;;;;;;;22.35;47.84;101309.13;5007225;28;20080;-76
2021/09/18 08:46:42;;;;;;;13.82;10.82;;;;;;;22.39;48.23;101305.00;5006278;28;20077;-76
2021/09/18 08:49:10;;;;;;;14.98;11.32;;;;;;;22.45;48.22;101305.34;5006941;28;20097;-76
2021/09/18 08:51:37;;;;;;;15.27;11.65;;;;;;;22.50;47.88;101305.69;5008067;28;20046;-76
2021/09/18 08:54:04;;;;;;;14.95;12.18;;;;;;;22.54;48.09;101312.63;4986197;28;20061;-76
2021/09/18 08:56:31;;;;;;;15.48;11.73;;;;;;;22.59;48.14;101307.44;4991355;28;20119;-75
2021/09/18 08:58:58;;;;;;;17.65;12.65;;;;;;;22.65;48.22;101315.06;5010561;28;20041;-75
2021/09/18 09:01:26;;;;;;;15.00;11.93;;;;;;;22.71;48.07;101306.09;5009356;28;20049;-75
2021/09/18 09:03:59;;;;;;;17.30;13.82;;;;;;;22.81;47.97;101308.75;5006776;28;20054;-75
2021/09/18 09:06:42;;;;;;;18.67;13.10;;;;;;;22.86;47.84;101314.63;5022386;28;20050;-75
2021/09/18 09:09:10;;;;;;;17.08;13.02;;;;;;;22.92;47.82;101311.16;5005637;28;20042;-75
2021/09/18 09:11:47;;;;;;;19.98;15.45;;;;;;;23.05;48.06;101311.53;5006216;28;20133;-75
2021/09/18 09:14:13;;;;;;;18.80;14.13;;;;;;;23.08;48.03;101306.50;5021826;28;20125;-75
2021/09/18 09:16:56;;;;;;;18.88;14.10;;;;;;;23.20;47.48;101309.81;5007362;28;20144;-75
2021/09/18 09:19:23;;;;;;;20.58;13.57;;;;;;;23.24;47.90;101308.41;5006877;28;20138;-75
2021/09/18 09:21:54;;;;;;;19.75;15.35;;;;;;;23.40;48.07;101311.16;5007424;28;20396;-76
2021/09/18 09:24:23;;;;;;;20.48;15.20;;;;;;;23.48;47.84;101313.06;5006452;28;20050;-76
2021/09/18 09:27:10;;;;;;;20.15;14.00;;;;;;;23.57;47.20;101314.81;5005611;28;20136;-75
2021/09/18 09:29:46;;;;;;;19.67;15.57;;;;;;;23.68;46.96;101316.38;5005989;28;20054;-75
2021/09/18 09:32:25;;;;;;;21.73;15.75;;;;;;;23.78;46.55;101315.13;5007204;28;20041;-75
2021/09/18 09:34:54;;;;;;;20.48;15.55;;;;;;;23.86;47.08;101315.13;5006369;28;20380;-75
2021/09/18 09:37:22;;;;;;;19.98;14.98;;;;;;;23.95;47.27;101315.09;5006622;28;20132;-75
2021/09/18 09:39:59;;;;;;;20.13;14.43;;;;;;;24.08;46.86;101319.03;5005127;28;20041;-75
2021/09/18 09:42:31;;;;;;;22.63;16.83;;;;;;;24.14;47.11;101314.66;5007098;28;20041;-76
2021/09/18 09:45:08;;;;;;;19.17;14.00;;;;;;;24.22;46.41;101318.28;5007256;28;20096;-75
2021/09/18 09:47:35;;;;;;;18.85;14.57;;;;;;;24.30;46.40;101308.19;5005359;28;20045;-75
2021/09/18 09:50:03;;;;;;;18.98;14.98;;;;;;;24.42;46.57;101306.75;5005678;28;20049;-75
2021/09/18 09:52:32;;;;;;;15.95;12.75;;;;;;;24.54;46.51;101314.47;5006397;28;20056;-75
2021/09/18 09:55:09;;;;;;;17.55;14.07;;;;;;;24.68;45.79;101318.41;5007198;28;20112;-75
2021/09/18 09:57:37;;;;;;;17.05;12.48;;;;;;;24.75;46.81;101307.44;5005544;28;20124;-75
2021/09/18 10:00:13;;;;;;;18.13;13.40;;;;;;;24.90;46.26;101309.22;5005653;28;20081;-75
2021/09/18 10:02:41;;;;;;;15.70;11.98;;;;;;;25.00;46.61;101307.09;5004333;28;20066;-75
2021/09/18 10:05:14;;;;;;;17.50;12.95;;;;;;;25.14;45.76;101308.19;5006680;28;20085;-75
2021/09/18 10:07:42;;;;;;;14.98;11.05;;;;;;;25.24;46.54;101305.16;5005475;28;20124;-75
2021/09/18 10:10:12;;;;;;;14.52;11.70;;;;;;;25.40;45.92;101294.78;5006235;28;20057;-75
2021/09/18 10:12:39;;;;;;;15.75;11.63;;;;;;;25.52;45.54;101297.09;5005364;28;20124;-75
2021/09/18 10:15:09;;;;;;;12.73;8.50;;;;;;;25.66;45.18;101301.84;5006743;28;20046;-76
2021/09/18 10:17:43;;;;;;;12.77;9.57;;;;;;;25.75;44.76;101300.72;5004930;28;20081;-75
2021/09/18 10:20:15;;;;;;;12.88;9.55;;;;;;;25.83;44.39;101300.63;5004948;28;20415;-75
2021/09/18 10:25:37;;;;;;;10.98;8.73;;;;;;;26.03;43.46;101303.66;5006550;28;20103;-74
2021/09/18 10:28:05;;;;;;;12.05;9.20;;;;;;;26.08;43.65;101298.41;5004102;28;20170;-75
2021/09/18 10:30:35;;;;;;;12.60;9.32;;;;;;;26.18;43.30;101290.63;5005126;28;20403;-75
2021/09/18 10:33:02;;;;;;;14.07;10.55;;;;;;;26.26;43.30;101298.03;5003854;28;20142;-75
2021/09/18 10:35:31;;;;;;;13.20;10.32;;;;;;;26.33;41.99;101293.44;5006078;28;20081;-75
2021/09/18 10:38:17;;;;;;;12.60;9.98;;;;;;;26.37;42.14;101291.97;5004828;28;20085;-75
2021/09/18 10:41:02;;;;;;;11.85;9.60;;;;;;;26.45;41.43;101289.94;5006147;28;20546;-75
2021/09/18 10:43:33;;;;;;;14.55;10.95;;;;;;;26.50;41.64;101289.34;5005219;28;20128;-75
2021/09/18 10:46:00;;;;;;;12.45;9.98;;;;;;;26.51;41.77;101280.81;5004685;28;20050;-74
2021/09/18 10:48:42;;;;;;;12.52;9.15;;;;;;;26.58;40.63;101280.03;5005108;28;20045;-75
2021/09/18 10:51:37;;;;;;;15.20;11.43;;;;;;;26.56;40.15;101284.91;5004758;28;20137;-75
2021/09/18 10:54:14;;;;;;;11.50;9.90;;;;;;;26.60;40.41;101281.56;4992275;28;20152;-75
2021/09/18 10:57:08;;;;;;;12.50;8.90;;;;;;;26.58;41.03;101272.53;5005816;28;20076;-75
2021/09/18 10:59:41;;;;;;;10.95;8.77;;;;;;;26.62;40.84;101270.19;5005036;28;20463;-75
2021/09/18 11:02:29;;;;;;;12.32;9.82;;;;;;;26.64;40.65;101270.88;5025700;28;20145;-74
2021/09/18 11:04:57;;;;;;;13.85;9.90;;;;;;;26.67;41.42;101268.56;5009380;28;20050;-75
2021/09/18 11:07:39;;;;;;;12.07;10.02;;;;;;;26.75;40.59;101262.88;5004430;28;20539;-75
2021/09/18 11:10:13;;;;;;;12.30;9.30;;;;;;;26.79;41.08;101266.97;5004025;28;20112;-75
2021/09/18 11:12:40;;;;;;;11.68;9.07;;;;;;;26.85;40.96;101255.00;5004789;28;20125;-75
2021/09/18 11:15:10;;;;;;;12.73;10.77;;;;;;;26.94;40.69;101261.34;5005704;28;20153;-75
2021/09/18 11:17:43;;;;;;;12.80;9.88;;;;;;;27.02;40.37;101260.34;5004639;28;20065;-75
2021/09/18 11:20:18;;;;;;;12.27;9.95;;;;;;;27.06;41.02;101253.31;5005479;28;20074;-75
2021/09/18 11:22:52;;;;;;;11.02;9.05;;;;;;;27.12;39.86;101263.66;5003824;28;20050;-75